| time (UTC) | temp F | wind direction | speed knots | gust knots | rain 1hr in | rain 24hr in | rain mn in | humidity % | barometer mb |
| 20260906093019 | 69 | 57 | 0.0 | 0.9 | 0.00 | 0.25 | 0.00 | 93 | 1013.9 |
| 20260906091507 | 69 | 138 | 0.0 | 1.7 | 0.00 | 0.25 | 0.00 | 93 | 1013.8 |
| 20260906090027 | 69 | 7 | 0.0 | 1.7 | 0.00 | 0.25 | 0.00 | 93 | 1013.6 |
| 20260906084527 | 69 | 129 | 0.0 | 1.7 | 0.00 | 0.25 | 0.00 | 93 | 1013.9 |
| 20260906083025 | 69 | 128 | 0.0 | 1.7 | 0.00 | 0.25 | 0.00 | 93 | 1013.9 |
| 20260906081525 | 69 | 47 | 0.0 | 1.7 | 0.00 | 0.25 | 0.00 | 93 | 1014.0 |
| 20260906080017 | 69 | 196 | 0.0 | 1.7 | 0.00 | 0.25 | 0.00 | 93 | 1013.8 |
| 20260906074512 | 69 | 179 | 0.0 | 1.7 | 0.00 | 0.25 | 0.00 | 93 | 1014.0 |
| 20260906073009 | 69 | 150 | 0.0 | 1.7 | 0.00 | 0.25 | 0.00 | 93 | 1014.2 |
| 20260906071530 | 69 | 124 | 0.0 | 1.7 | 0.00 | 0.25 | 0.00 | 94 | 1014.1 |
| 20260906070027 | 69 | 50 | 0.0 | 1.7 | 0.00 | 0.25 | 0.00 | 93 | 1014.1 |
| 20260906064533 | 69 | 84 | 0.0 | 0.9 | 0.00 | 0.25 | 0.00 | 93 | 1014.0 |
| 20260906063023 | 69 | 84 | 0.0 | 0.9 | 0.00 | 0.25 | 0.00 | 93 | 1014.3 |
| 20260906061516 | 70 | 84 | 0.0 | 0.0 | 0.00 | 0.25 | 0.00 | 93 | 1014.3 |
| 20260906060021 | 70 | 84 | 0.0 | 1.7 | 0.00 | 0.25 | 0.00 | 93 | 1014.5 |
| 20260906054530 | 70 | 39 | 0.0 | 1.7 | 0.00 | 0.25 | 0.00 | 93 | 1014.7 |
| 20260906053032 | 70 | 127 | 0.0 | 1.7 | 0.00 | 0.25 | 0.00 | 93 | 1014.7 |
| 20260906051527 | 70 | 84 | 0.0 | 1.7 | 0.00 | 0.25 | 0.00 | 93 | 1015.0 |
| 20260906050027 | 70 | 58 | 0.0 | 1.7 | 0.00 | 0.25 | 0.00 | 92 | 1015.1 |
| 20260906044523 | 71 | 117 | 0.0 | 1.7 | 0.00 | 0.25 | 0.00 | 92 | 1014.9 |
| 20260906043022 | 71 | 117 | 0.0 | 1.7 | 0.00 | 0.25 | 0.00 | 92 | 1014.7 |
| 20260906041516 | 71 | 129 | 0.0 | 1.7 | 0.00 | 0.25 | 0.00 | 92 | 1014.8 |
| 20260906040038 | 71 | 130 | 0.0 | 1.7 | 0.00 | 0.25 | 0.00 | 91 | 1014.8 |
| 20260906034535 | 71 | 78 | 0.0 | 1.7 | 0.00 | 0.25 | 0.25 | 91 | 1014.9 |
| 20260906033033 | 71 | 61 | 0.0 | 1.7 | 0.00 | 0.25 | 0.25 | 91 | 1015.1 |
| 20260906031526 | 72 | 115 | 0.0 | 1.7 | 0.00 | 0.25 | 0.25 | 91 | 1015.1 |
| 20260906030026 | 72 | 90 | 0.0 | 0.0 | 0.00 | 0.25 | 0.25 | 91 | 1015.0 |
| 20260906024523 | 72 | 90 | 0.0 | 0.0 | 0.00 | 0.25 | 0.25 | 90 | 1015.1 |
| 20260906023037 | 73 | 89 | 0.0 | 0.0 | 0.00 | 0.25 | 0.25 | 89 | 1015.0 |
| 20260906021534 | 73 | 89 | 0.0 | 0.0 | 0.00 | 0.25 | 0.25 | 88 | 1015.0 |
| 20260906020034 | 73 | 99 | 0.0 | 0.0 | 0.00 | 0.25 | 0.25 | 88 | 1014.9 |
| 20260906014534 | 74 | 82 | 0.0 | 0.0 | 0.00 | 0.25 | 0.25 | 87 | 1014.7 |
| 20260906013027 | 75 | 92 | 0.0 | 0.0 | 0.00 | 0.25 | 0.25 | 86 | 1014.8 |
| 20260906011524 | 75 | 359 | 0.0 | 0.0 | 0.00 | 0.25 | 0.25 | 86 | 1014.6 |
| 20260906010020 | 75 | 98 | 0.0 | 0.0 | 0.00 | 0.25 | 0.25 | 85 | 1014.4 |
| 20260906004531 | 76 | 274 | 0.0 | 0.0 | 0.00 | 0.25 | 0.25 | 83 | 1014.3 |
| 20260906003034 | 77 | 250 | 0.0 | 0.0 | 0.00 | 0.25 | 0.25 | 81 | 1014.1 |
| 20260906001531 | 78 | 250 | 0.0 | 0.0 | 0.00 | 0.25 | 0.25 | 80 | 1013.9 |
| 20260906000030 | 79 | 250 | 0.0 | 0.0 | 0.00 | 0.25 | 0.25 | 77 | 1013.9 |
| 20260905234525 | 80 | 249 | 0.0 | 0.0 | 0.00 | 0.25 | 0.25 | 75 | 1013.8 |
| 20260905233028 | 82 | 231 | 0.0 | 0.0 | 0.00 | 0.25 | 0.25 | 71 | 1013.7 |
| 20260905231535 | 84 | 245 | 0.0 | 1.7 | 0.00 | 0.25 | 0.25 | 68 | 1013.7 |
| 20260905230034 | 85 | 174 | 0.0 | 2.6 | 0.00 | 0.25 | 0.25 | 65 | 1013.9 |
| 20260905224539 | 87 | 210 | 0.9 | 1.7 | 0.00 | 0.25 | 0.25 | 61 | 1014.1 |
| 20260905223031 | 88 | 201 | 0.9 | 4.3 | 0.00 | 0.25 | 0.25 | 58 | 1014.3 |
| 20260905221538 | 88 | 337 | 0.0 | 4.3 | 0.00 | 0.25 | 0.25 | 59 | 1014.2 |
| 20260905220029 | 88 | 171 | 0.0 | 2.6 | 0.00 | 0.25 | 0.25 | 59 | 1014.1 |
| 20260905214528 | 87 | 240 | 0.0 | 2.6 | 0.00 | 0.25 | 0.25 | 61 | 1014.1 |
| 20260905213034 | 87 | 112 | 0.9 | 2.6 | 0.00 | 0.25 | 0.25 | 61 | 1014.0 |
| 20260905211534 | 87 | 224 | 0.9 | 2.6 | 0.00 | 0.25 | 0.25 | 60 | 1013.9 |
| 20260905210025 | 86 | 224 | 0.9 | 3.5 | 0.00 | 0.25 | 0.25 | 62 | 1013.9 |
| 20260905204510 | 86 | 223 | 0.0 | 2.6 | 0.00 | 0.25 | 0.25 | 60 | 1014.1 |
| 20260905203008 | 85 | 249 | 0.0 | 3.5 | 0.00 | 0.25 | 0.25 | 61 | 1014.0 |
| 20260905201529 | 84 | 334 | 0.9 | 4.3 | 0.00 | 0.25 | 0.25 | 63 | 1014.3 |
| 20260905200026 | 84 | 84 | 0.0 | 1.7 | 0.00 | 0.25 | 0.25 | 67 | 1014.3 |
| 20260905194526 | 82 | 216 | 0.0 | 2.6 | 0.00 | 0.25 | 0.25 | 69 | 1014.6 |
| 20260905193022 | 81 | 115 | 0.9 | 2.6 | 0.00 | 0.25 | 0.25 | 72 | 1014.9 |
| 20260905191515 | 79 | 110 | 0.9 | 1.7 | 0.00 | 0.25 | 0.25 | 74 | 1015.1 |
| 20260905190016 | 77 | 209 | 0.9 | 2.6 | 0.00 | 0.25 | 0.25 | 78 | 1015.3 |
| 20260905184546 | 73 | 111 | 0.9 | 2.6 | 0.00 | 0.25 | 0.25 | 87 | 1015.5 |
| 20260905183030 | 71 | 121 | 0.9 | 2.6 | 0.00 | 0.25 | 0.25 | 90 | 1015.8 |
| 20260905181530 | 70 | 59 | 0.0 | 1.7 | 0.00 | 0.25 | 0.25 | 93 | 1016.2 |
| 20260905180026 | 70 | 359 | 0.0 | 1.7 | 0.01 | 0.25 | 0.25 | 93 | 1016.9 |
| 20260905174534 | 70 | 285 | 0.0 | 1.7 | 0.01 | 0.25 | 0.25 | 93 | 1017.3 |
| 20260905173026 | 70 | 314 | 0.0 | 1.7 | 0.02 | 0.25 | 0.25 | 92 | 1017.9 |
| 20260905171515 | 70 | 337 | 0.0 | 1.7 | 0.25 | 0.25 | 0.25 | 91 | 1017.8 |
| 20260905170033 | 70 | 122 | 0.0 | 1.7 | 0.24 | 0.24 | 0.24 | 89 | 1017.6 |
| 20260905164530 | 70 | 127 | 0.9 | 2.6 | 0.24 | 0.24 | 0.24 | 88 | 1017.7 |
| 20260905163030 | 73 | 65 | 0.9 | 5.2 | 0.23 | 0.23 | 0.23 | 80 | 1017.7 |
| 20260905161529 | 80 | 359 | 4.3 | 13.0 | 0.00 | 0.00 | 0.00 | 68 | 1018.0 |
| 20260905160029 | 86 | 15 | 0.9 | 2.6 | 0.00 | 0.00 | 0.00 | 68 | 1016.7 |
| 20260905154520 | 87 | 248 | 0.0 | 2.6 | 0.00 | 0.00 | 0.00 | 65 | 1016.7 |
| 20260905153036 | 88 | 11 | 0.9 | 2.6 | 0.00 | 0.00 | 0.00 | 64 | 1017.1 |
| 20260905151534 | 87 | 359 | 0.0 | 1.7 | 0.00 | 0.00 | 0.00 | 66 | 1016.8 |
| 20260905150031 | 86 | 240 | 0.9 | 2.6 | 0.00 | 0.00 | 0.00 | 67 | 1016.6 |
| 20260905144535 | 86 | 50 | 0.0 | 2.6 | 0.00 | 0.00 | 0.00 | 68 | 1016.6 |
| 20260905143031 | 85 | 325 | 0.0 | 0.9 | 0.00 | 0.00 | 0.00 | 69 | 1016.6 |
| 20260905141528 | 83 | 20 | 0.0 | 1.7 | 0.00 | 0.00 | 0.00 | 71 | 1016.8 |
| 20260905140023 | 82 | 274 | 0.0 | 0.0 | 0.00 | 0.00 | 0.00 | 72 | 1016.8 |
| 20260905134535 | 81 | 19 | 0.0 | 1.7 | 0.00 | 0.00 | 0.00 | 75 | 1016.7 |
| 20260905133032 | 80 | 52 | 0.0 | 0.0 | 0.00 | 0.00 | 0.00 | 77 | 1016.8 |
| 20260905131546 | 78 | 65 | 0.0 | 1.7 | 0.00 | 0.00 | 0.00 | 80 | 1016.9 |
| 20260905130035 | 76 | 17 | 0.0 | 1.7 | 0.00 | 0.00 | 0.00 | 83 | 1017.2 |
| 20260905124539 | 74 | 45 | 0.0 | 0.0 | 0.00 | 0.00 | 0.00 | 88 | 1017.1 |
| 20260905123027 | 72 | 285 | 0.0 | 0.0 | 0.00 | 0.00 | 0.00 | 91 | 1017.2 |
| 20260905121530 | 71 | 254 | 0.0 | 0.0 | 0.00 | 0.00 | 0.00 | 91 | 1017.1 |
| 20260905120021 | 70 | 68 | 0.0 | 1.7 | 0.00 | 0.00 | 0.00 | 93 | 1017.0 |
| 20260905114533 | 70 | 131 | 0.0 | 0.0 | 0.00 | 0.00 | 0.00 | 93 | 1016.8 |
| 20260905113012 | 70 | 131 | 0.0 | 0.0 | 0.00 | 0.00 | 0.00 | 94 | 1016.6 |
| 20260905111515 | 70 | 131 | 0.0 | 0.0 | 0.00 | 0.00 | 0.00 | 93 | 1016.4 |
| 20260905110006 | 70 | 131 | 0.0 | 0.0 | 0.00 | 0.00 | 0.00 | 93 | 1016.3 |
| 20260905104528 | 70 | 131 | 0.0 | 0.0 | 0.00 | 0.00 | 0.00 | 93 | 1016.2 |
| 20260905103030 | 70 | 131 | 0.0 | 0.0 | 0.00 | 0.00 | 0.00 | 93 | 1016.1 |
| 20260905101530 | 70 | 131 | 0.0 | 0.0 | 0.00 | 0.00 | 0.00 | 93 | 1016.0 |
| 20260905100020 | 71 | 131 | 0.0 | 0.0 | 0.00 | 0.00 | 0.00 | 92 | 1015.9 |
| 20260905094516 | 71 | 131 | 0.0 | 0.0 | 0.00 | 0.00 | 0.00 | 92 | 1015.9 |